PWSweather.com
Personal Weather Stations
Station Observations

ChardChardGB

Lat: 50.877408, Lon: -2.94964741

Elevation: 341

Station Type: WS3083

http://www.merriott-astro.co.uk/weather/index.htm

High Low Average
Temperature 52.5°F11.4°C 40.5°F4.7°C 46.9°F8.3°C
Dew Point 48.7°F9.3°C 36.1°F2.3°C 42.7°F5.9°C
Winds 18.5 mph 29.8 kmh Calm Calm 3.0 mph SE4.8 kmh SE
Wind Gusts 33.6 mph54.1 kmh -- 5.0 mph8.0 kmh
Humidity 93% 68% 86%
Pressure 30.00 in1015.9 mb 29.47 in998.0 mb -
Precipitation 0.14 in3.6 mm - -
Hour Temp Dew Point Humidity Winds Wind Gusts Pressure Precip Precip Rate Daily Precip Total
12:00 AM 51.1°F10.6°C 48.5°F9.2°C 91% 0.1 mph WSW0.2 kmh WSW 0.7 mph1.1 kmh 29.97 in1014.9 mb 0.06 in1.5 mm 0.00 in0.0 mm 0.06 in1.5 mm
12:10 AM 51.3°F10.7°C 48.7°F9.3°C 91% 0.6 mph W1.0 kmh W 2.2 mph3.5 kmh 29.97 in1014.9 mb 0.04 in1.0 mm 0.00 in0.0 mm 0.06 in1.5 mm
12:20 AM 51.1°F10.6°C 48.5°F9.2°C 91% 2.1 mph NW3.4 kmh NW 6.0 mph9.7 kmh 29.97 in1014.9 mb 0.02 in0.5 mm 0.00 in0.0 mm 0.06 in1.5 mm
12:30 AM 50.5°F10.3°C 48.0°F8.9°C 91% 1.4 mph WNW2.3 kmh WNW 7.6 mph12.2 kmh 29.98 in1015.2 mb 0.01 in0.3 mm 0.00 in0.0 mm 0.06 in1.5 mm
12:40 AM 50.2°F10.1°C 47.7°F8.7°C 91% Calm Calm -- 29.97 in1014.9 mb 0.00 in0.0 mm 0.00 in0.0 mm 0.06 in1.5 mm
12:50 AM 50.0°F10.0°C 47.5°F8.6°C 91% 0.7 mph NW1.1 kmh NW 6.0 mph9.7 kmh 29.98 in1015.2 mb 0.00 in0.0 mm 0.00 in0.0 mm 0.06 in1.5 mm
01:00 AM 49.8°F9.9°C 47.3°F8.5°C 91% 0.1 mph W0.2 kmh W 0.7 mph1.1 kmh 29.98 in1015.2 mb 0.00 in0.0 mm 0.00 in0.0 mm 0.06 in1.5 mm
01:10 AM 49.8°F9.9°C 47.3°F8.5°C 91% 0.2 mph WSW0.3 kmh WSW 2.2 mph3.5 kmh 29.98 in1015.2 mb 0.00 in0.0 mm 0.00 in0.0 mm 0.06 in1.5 mm
01:20 AM 49.6°F9.8°C 47.1°F8.4°C 91% Calm Calm -- 29.98 in1015.2 mb 0.00 in0.0 mm 0.00 in0.0 mm 0.06 in1.5 mm
01:30 AM 49.6°F9.8°C 47.1°F8.4°C 91% Calm Calm -- 29.98 in1015.2 mb 0.00 in0.0 mm 0.00 in0.0 mm 0.06 in1.5 mm
01:40 AM 49.5°F9.7°C 46.9°F8.3°C 91% Calm Calm -- 29.98 in1015.2 mb 0.00 in0.0 mm 0.00 in0.0 mm 0.06 in1.5 mm
01:50 AM 49.3°F9.6°C 46.8°F8.2°C 91% Calm Calm -- 29.98 in1015.2 mb 0.00 in0.0 mm 0.00 in0.0 mm 0.06 in1.5 mm
02:00 AM 48.9°F9.4°C 46.4°F8.0°C 91% Calm Calm -- 29.98 in1015.2 mb 0.00 in0.0 mm 0.00 in0.0 mm 0.06 in1.5 mm
02:10 AM 48.7°F9.3°C 46.2°F7.9°C 91% Calm Calm -- 29.98 in1015.2 mb 0.00 in0.0 mm 0.00 in0.0 mm 0.06 in1.5 mm
02:20 AM 48.6°F9.2°C 45.8°F7.7°C 90% Calm Calm -- 29.98 in1015.2 mb 0.00 in0.0 mm 0.00 in0.0 mm 0.06 in1.5 mm
02:30 AM 48.4°F9.1°C 45.6°F7.6°C 90% Calm Calm -- 29.98 in1015.2 mb 0.00 in0.0 mm 0.00 in0.0 mm 0.06 in1.5 mm
02:40 AM 48.2°F9.0°C 45.4°F7.4°C 90% Calm Calm -- 29.98 in1015.2 mb 0.00 in0.0 mm 0.00 in0.0 mm 0.06 in1.5 mm
02:50 AM 47.8°F8.8°C 45.1°F7.3°C 90% Calm Calm -- 29.98 in1015.2 mb 0.00 in0.0 mm 0.00 in0.0 mm 0.06 in1.5 mm
03:00 AM 47.5°F8.6°C 44.7°F7.1°C 90% Calm Calm -- 29.98 in1015.2 mb 0.00 in0.0 mm 0.00 in0.0 mm 0.06 in1.5 mm
03:10 AM 47.3°F8.5°C 44.5°F6.9°C 90% Calm Calm -- 29.98 in1015.2 mb 0.00 in0.0 mm 0.00 in0.0 mm 0.06 in1.5 mm
03:20 AM 47.3°F8.5°C 44.5°F6.9°C 90% Calm Calm -- 29.98 in1015.2 mb 0.00 in0.0 mm 0.00 in0.0 mm 0.06 in1.5 mm
03:30 AM 47.3°F8.5°C 44.5°F6.9°C 90% Calm Calm -- 29.97 in1014.9 mb 0.00 in0.0 mm 0.00 in0.0 mm 0.06 in1.5 mm
03:40 AM 47.3°F8.5°C 44.5°F6.9°C 90% Calm Calm -- 29.98 in1015.2 mb 0.00 in0.0 mm 0.00 in0.0 mm 0.06 in1.5 mm
03:50 AM 46.9°F8.3°C 44.2°F6.8°C 90% Calm Calm -- 29.97 in1014.9 mb 0.00 in0.0 mm 0.00 in0.0 mm 0.06 in1.5 mm
04:00 AM 46.6°F8.1°C 43.8°F6.6°C 90% Calm Calm -- 29.98 in1015.2 mb 0.00 in0.0 mm 0.00 in0.0 mm 0.06 in1.5 mm
04:10 AM 45.9°F7.7°C 43.1°F6.2°C 90% Calm Calm -- 29.97 in1014.9 mb 0.00 in0.0 mm 0.00 in0.0 mm 0.06 in1.5 mm
04:20 AM 46.0°F7.8°C 43.3°F6.3°C 90% Calm Calm -- 29.98 in1015.2 mb 0.00 in0.0 mm 0.00 in0.0 mm 0.06 in1.5 mm
04:30 AM 46.2°F7.9°C 43.5°F6.4°C 90% Calm Calm -- 29.98 in1015.2 mb 0.00 in0.0 mm 0.00 in0.0 mm 0.06 in1.5 mm
04:40 AM 46.0°F7.8°C 43.3°F6.3°C 90% Calm Calm -- 29.98 in1015.2 mb 0.00 in0.0 mm 0.00 in0.0 mm 0.06 in1.5 mm
04:50 AM 45.5°F7.5°C 42.7°F5.9°C 90% Calm Calm -- 29.98 in1015.2 mb 0.00 in0.0 mm 0.00 in0.0 mm 0.06 in1.5 mm
05:00 AM 45.3°F7.4°C 43.4°F6.3°C 93% Calm Calm -- 29.98 in1015.2 mb 0.00 in0.0 mm 0.00 in0.0 mm 0.06 in1.5 mm
05:10 AM 45.1°F7.3°C 43.2°F6.2°C 93% Calm Calm -- 29.98 in1015.2 mb 0.00 in0.0 mm 0.00 in0.0 mm 0.06 in1.5 mm
05:20 AM 45.0°F7.2°C 43.1°F6.2°C 93% Calm Calm -- 29.98 in1015.2 mb 0.00 in0.0 mm 0.00 in0.0 mm 0.06 in1.5 mm
05:30 AM 44.2°F6.8°C 42.3°F5.7°C 93% Calm Calm -- 29.98 in1015.2 mb 0.00 in0.0 mm 0.00 in0.0 mm 0.06 in1.5 mm
05:40 AM 44.1°F6.7°C 42.2°F5.7°C 93% Calm Calm -- 29.98 in1015.2 mb 0.00 in0.0 mm 0.00 in0.0 mm 0.06 in1.5 mm
05:50 AM 43.7°F6.5°C 41.8°F5.4°C 93% Calm Calm -- 29.98 in1015.2 mb 0.00 in0.0 mm 0.00 in0.0 mm 0.06 in1.5 mm
06:00 AM 43.2°F6.2°C 41.3°F5.2°C 93% Calm Calm -- 29.98 in1015.2 mb 0.00 in0.0 mm 0.00 in0.0 mm 0.06 in1.5 mm
06:10 AM 43.2°F6.2°C 41.3°F5.2°C 93% Calm Calm -- 29.98 in1015.2 mb 0.00 in0.0 mm 0.00 in0.0 mm 0.06 in1.5 mm
06:20 AM 42.6°F5.9°C 40.7°F4.8°C 93% Calm Calm -- 29.98 in1015.2 mb 0.00 in0.0 mm 0.00 in0.0 mm 0.06 in1.5 mm
06:30 AM 42.1°F5.6°C 39.9°F4.4°C 92% Calm Calm -- 29.98 in1015.2 mb 0.00 in0.0 mm 0.00 in0.0 mm 0.06 in1.5 mm
06:40 AM 41.9°F5.5°C 39.7°F4.3°C 92% Calm Calm -- 29.98 in1015.2 mb 0.00 in0.0 mm 0.00 in0.0 mm 0.06 in1.5 mm
06:50 AM 41.0°F5.0°C 38.9°F3.8°C 92% Calm Calm -- 29.99 in1015.6 mb 0.00 in0.0 mm 0.00 in0.0 mm 0.06 in1.5 mm
07:00 AM 40.6°F4.8°C 38.5°F3.6°C 92% Calm Calm -- 29.98 in1015.2 mb 0.00 in0.0 mm 0.00 in0.0 mm 0.06 in1.5 mm
07:10 AM 40.6°F4.8°C 38.5°F3.6°C 92% Calm Calm -- 29.98 in1015.2 mb 0.00 in0.0 mm 0.00 in0.0 mm 0.06 in1.5 mm
07:20 AM 40.6°F4.8°C 38.5°F3.6°C 92% Calm Calm -- 29.99 in1015.6 mb 0.00 in0.0 mm 0.00 in0.0 mm 0.06 in1.5 mm
07:30 AM 40.6°F4.8°C 38.5°F3.6°C 92% Calm Calm -- 29.98 in1015.2 mb 0.00 in0.0 mm 0.00 in0.0 mm 0.06 in1.5 mm
07:40 AM 40.6°F4.8°C 38.5°F3.6°C 92% Calm Calm -- 29.99 in1015.6 mb 0.01 in0.3 mm 0.06 in1.5 mm 0.01 in0.3 mm
07:50 AM 40.6°F4.8°C 38.5°F3.6°C 92% Calm Calm -- 29.99 in1015.6 mb 0.01 in0.3 mm 0.00 in0.0 mm 0.01 in0.3 mm
08:00 AM 40.5°F4.7°C 38.3°F3.5°C 92% Calm Calm -- 29.99 in1015.6 mb 0.01 in0.3 mm 0.00 in0.0 mm 0.01 in0.3 mm
08:10 AM 40.5°F4.7°C 38.3°F3.5°C 92% Calm Calm -- 29.99 in1015.6 mb 0.01 in0.3 mm 0.00 in0.0 mm 0.01 in0.3 mm
08:20 AM 40.8°F4.9°C 38.7°F3.7°C 92% Calm Calm -- 30.00 in1015.9 mb 0.01 in0.3 mm 0.00 in0.0 mm 0.01 in0.3 mm
08:30 AM 41.4°F5.2°C 39.2°F4.0°C 92% Calm Calm -- 29.99 in1015.6 mb 0.01 in0.3 mm 0.00 in0.0 mm 0.01 in0.3 mm
08:40 AM 41.7°F5.4°C 39.6°F4.2°C 92% Calm Calm -- 30.00 in1015.9 mb 0.00 in0.0 mm 0.00 in0.0 mm 0.01 in0.3 mm
08:50 AM 42.3°F5.7°C 40.4°F4.7°C 93% Calm Calm -- 29.99 in1015.6 mb 0.00 in0.0 mm 0.00 in0.0 mm 0.01 in0.3 mm
09:00 AM 43.0°F6.1°C 41.1°F5.1°C 93% Calm Calm -- 30.00 in1015.9 mb 0.00 in0.0 mm 0.00 in0.0 mm 0.01 in0.3 mm
09:10 AM 43.5°F6.4°C 41.6°F5.3°C 93% 0.1 mph S0.2 kmh S 0.7 mph1.1 kmh 29.99 in1015.6 mb 0.00 in0.0 mm 0.00 in0.0 mm 0.01 in0.3 mm
09:20 AM 43.7°F6.5°C 41.8°F5.4°C 93% Calm Calm -- 30.00 in1015.9 mb 0.00 in0.0 mm 0.00 in0.0 mm 0.01 in0.3 mm
09:30 AM 44.2°F6.8°C 42.3°F5.7°C 93% Calm Calm -- 30.00 in1015.9 mb 0.00 in0.0 mm 0.00 in0.0 mm 0.01 in0.3 mm
09:40 AM 44.2°F6.8°C 42.3°F5.7°C 93% Calm Calm -- 30.00 in1015.9 mb 0.00 in0.0 mm 0.00 in0.0 mm 0.01 in0.3 mm
09:50 AM 44.8°F7.1°C 42.9°F6.1°C 93% Calm Calm -- 29.99 in1015.6 mb 0.00 in0.0 mm 0.00 in0.0 mm 0.01 in0.3 mm
10:00 AM 45.5°F7.5°C 42.7°F5.9°C 90% 0.1 mph E0.2 kmh E 0.7 mph1.1 kmh 29.99 in1015.6 mb 0.00 in0.0 mm 0.00 in0.0 mm 0.01 in0.3 mm
10:10 AM 45.9°F7.7°C 43.1°F6.2°C 90% Calm Calm -- 29.99 in1015.6 mb 0.00 in0.0 mm 0.00 in0.0 mm 0.01 in0.3 mm
10:20 AM 46.2°F7.9°C 43.5°F6.4°C 90% Calm Calm -- 29.98 in1015.2 mb 0.00 in0.0 mm 0.00 in0.0 mm 0.01 in0.3 mm
10:30 AM 46.0°F7.8°C 43.3°F6.3°C 90% 0.4 mph S0.6 kmh S 3.8 mph6.1 kmh 29.97 in1014.9 mb 0.00 in0.0 mm 0.00 in0.0 mm 0.01 in0.3 mm
10:40 AM 46.8°F8.2°C 44.0°F6.7°C 90% Calm Calm -- 29.97 in1014.9 mb 0.00 in0.0 mm 0.00 in0.0 mm 0.01 in0.3 mm
10:50 AM 46.6°F8.1°C 43.8°F6.6°C 90% 0.1 mph SW0.2 kmh SW 0.7 mph1.1 kmh 29.97 in1014.9 mb 0.00 in0.0 mm 0.00 in0.0 mm 0.01 in0.3 mm
11:00 AM 47.8°F8.8°C 45.1°F7.3°C 90% 0.3 mph SE0.5 kmh SE 4.5 mph7.2 kmh 29.97 in1014.9 mb 0.00 in0.0 mm 0.00 in0.0 mm 0.01 in0.3 mm
11:10 AM 47.8°F8.8°C 45.1°F7.3°C 90% 0.4 mph SW0.6 kmh SW 3.8 mph6.1 kmh 29.96 in1014.6 mb 0.00 in0.0 mm 0.00 in0.0 mm 0.01 in0.3 mm
11:20 AM 47.7°F8.7°C 44.9°F7.2°C 90% 4.6 mph SSW7.4 kmh SSW 9.8 mph15.8 kmh 29.97 in1014.9 mb 0.00 in0.0 mm 0.00 in0.0 mm 0.01 in0.3 mm
11:30 AM 47.8°F8.8°C 45.1°F7.3°C 90% 2.7 mph S4.3 kmh S 6.9 mph11.1 kmh 29.96 in1014.6 mb 0.00 in0.0 mm 0.00 in0.0 mm 0.01 in0.3 mm
11:40 AM 48.4°F9.1°C 45.6°F7.6°C 90% 4.3 mph SW6.9 kmh SW 9.2 mph14.8 kmh 29.96 in1014.6 mb 0.00 in0.0 mm 0.00 in0.0 mm 0.01 in0.3 mm
11:50 AM 48.6°F9.2°C 45.8°F7.7°C 90% 3.6 mph S5.8 kmh S 8.3 mph13.4 kmh 29.95 in1014.2 mb 0.00 in0.0 mm 0.00 in0.0 mm 0.01 in0.3 mm
12:00 PM 49.3°F9.6°C 46.5°F8.1°C 90% 2.6 mph S4.2 kmh S 9.2 mph14.8 kmh 29.95 in1014.2 mb 0.00 in0.0 mm 0.00 in0.0 mm 0.01 in0.3 mm
12:10 PM 49.8°F9.9°C 47.0°F8.3°C 90% 3.2 mph SSW5.1 kmh SSW 8.3 mph13.4 kmh 29.94 in1013.9 mb 0.00 in0.0 mm 0.00 in0.0 mm 0.01 in0.3 mm
12:20 PM 50.7°F10.4°C 47.9°F8.8°C 90% 1.9 mph SSW3.1 kmh SSW 6.9 mph11.1 kmh 29.93 in1013.5 mb 0.00 in0.0 mm 0.00 in0.0 mm 0.01 in0.3 mm
12:30 PM 50.9°F10.5°C 47.8°F8.8°C 89% 3.8 mph SW6.1 kmh SW 10.7 mph17.2 kmh 29.93 in1013.5 mb 0.00 in0.0 mm 0.00 in0.0 mm 0.01 in0.3 mm
12:40 PM 51.6°F10.9°C 48.2°F9.0°C 88% 4.4 mph SSW7.1 kmh SSW 9.2 mph14.8 kmh 29.93 in1013.5 mb 0.00 in0.0 mm 0.00 in0.0 mm 0.01 in0.3 mm
12:50 PM 51.6°F10.9°C 47.3°F8.5°C 85% 5.7 mph S9.2 kmh S 8.3 mph13.4 kmh 29.93 in1013.5 mb 0.00 in0.0 mm 0.00 in0.0 mm 0.01 in0.3 mm
01:00 PM 51.4°F10.8°C 46.5°F8.1°C 83% 2.2 mph SSW3.5 kmh SSW 6.0 mph9.7 kmh 29.92 in1013.2 mb 0.00 in0.0 mm 0.00 in0.0 mm 0.01 in0.3 mm
01:10 PM 51.1°F10.6°C 45.1°F7.3°C 80% 4.2 mph SSW6.8 kmh SSW 8.3 mph13.4 kmh 29.91 in1012.9 mb 0.00 in0.0 mm 0.00 in0.0 mm 0.01 in0.3 mm
01:20 PM 51.6°F10.9°C 44.3°F6.8°C 76% 5.0 mph SW8.0 kmh SW 7.6 mph12.2 kmh 29.90 in1012.5 mb 0.00 in0.0 mm 0.00 in0.0 mm 0.01 in0.3 mm
01:30 PM 52.5°F11.4°C 43.8°F6.6°C 72% 5.4 mph SW8.7 kmh SW 11.4 mph18.3 kmh 29.89 in1012.2 mb 0.00 in0.0 mm 0.00 in0.0 mm 0.01 in0.3 mm
01:40 PM 50.9°F10.5°C 41.5°F5.3°C 70% 7.9 mph SW12.7 kmh SW 12.1 mph19.5 kmh 29.89 in1012.2 mb 0.00 in0.0 mm 0.00 in0.0 mm 0.01 in0.3 mm
01:50 PM 50.5°F10.3°C 41.5°F5.3°C 71% 7.0 mph S11.3 kmh S 9.2 mph14.8 kmh 29.88 in1011.9 mb 0.00 in0.0 mm 0.00 in0.0 mm 0.01 in0.3 mm
02:00 PM 50.7°F10.4°C 41.7°F5.4°C 71% 6.4 mph SSW10.3 kmh SSW 9.2 mph14.8 kmh 29.88 in1011.9 mb 0.00 in0.0 mm 0.00 in0.0 mm 0.01 in0.3 mm
02:10 PM 50.7°F10.4°C 41.7°F5.4°C 71% 5.4 mph SW8.7 kmh SW 9.2 mph14.8 kmh 29.88 in1011.9 mb 0.00 in0.0 mm 0.00 in0.0 mm 0.01 in0.3 mm
02:20 PM 50.9°F10.5°C 41.8°F5.4°C 71% 4.5 mph S7.2 kmh S 6.0 mph9.7 kmh 29.89 in1012.2 mb 0.00 in0.0 mm 0.00 in0.0 mm 0.01 in0.3 mm
02:30 PM 50.2°F10.1°C 40.8°F4.9°C 70% 6.5 mph SSW10.5 kmh SSW 9.8 mph15.8 kmh 29.88 in1011.9 mb 0.00 in0.0 mm 0.00 in0.0 mm 0.01 in0.3 mm
02:40 PM 49.8°F9.9°C 40.4°F4.7°C 70% 5.4 mph S8.7 kmh S 9.2 mph14.8 kmh 29.87 in1011.5 mb 0.00 in0.0 mm 0.00 in0.0 mm 0.01 in0.3 mm
02:50 PM 49.3°F9.6°C 39.9°F4.4°C 70% 5.2 mph SW8.4 kmh SW 9.8 mph15.8 kmh 29.87 in1011.5 mb 0.00 in0.0 mm 0.00 in0.0 mm 0.01 in0.3 mm
03:00 PM 48.9°F9.4°C 39.6°F4.2°C 70% 9.2 mph S14.8 kmh S 12.1 mph19.5 kmh 29.86 in1011.2 mb 0.00 in0.0 mm 0.00 in0.0 mm 0.01 in0.3 mm
03:10 PM 48.7°F9.3°C 39.8°F4.3°C 71% 7.0 mph S11.3 kmh S 9.8 mph15.8 kmh 29.85 in1010.8 mb 0.00 in0.0 mm 0.00 in0.0 mm 0.01 in0.3 mm
03:20 PM 48.6°F9.2°C 40.0°F4.4°C 72% 4.7 mph SSW7.6 kmh SSW 7.6 mph12.2 kmh 29.84 in1010.5 mb 0.00 in0.0 mm 0.00 in0.0 mm 0.01 in0.3 mm
03:30 PM 48.4°F9.1°C 39.8°F4.3°C 72% 6.3 mph SW10.1 kmh SW 9.2 mph14.8 kmh 29.85 in1010.8 mb 0.00 in0.0 mm 0.00 in0.0 mm 0.01 in0.3 mm
03:40 PM 48.2°F9.0°C 40.0°F4.4°C 73% 6.2 mph SW10.0 kmh SW 9.2 mph14.8 kmh 29.84 in1010.5 mb 0.00 in0.0 mm 0.00 in0.0 mm 0.01 in0.3 mm
03:50 PM 48.0°F8.9°C 40.1°F4.5°C 74% 4.3 mph SSW6.9 kmh SSW 6.9 mph11.1 kmh 29.84 in1010.5 mb 0.00 in0.0 mm 0.00 in0.0 mm 0.01 in0.3 mm
04:00 PM 47.8°F8.8°C 40.3°F4.6°C 75% 4.8 mph SW7.7 kmh SW 6.0 mph9.7 kmh 29.83 in1010.2 mb 0.00 in0.0 mm 0.00 in0.0 mm 0.01 in0.3 mm
04:10 PM 47.8°F8.8°C 40.6°F4.8°C 76% 3.8 mph SSW6.1 kmh SSW 6.0 mph9.7 kmh 29.82 in1009.8 mb 0.00 in0.0 mm 0.00 in0.0 mm 0.01 in0.3 mm
04:20 PM 47.5°F8.6°C 40.3°F4.6°C 76% 3.7 mph WSW6.0 kmh WSW 5.4 mph8.7 kmh 29.81 in1009.5 mb 0.00 in0.0 mm 0.00 in0.0 mm 0.01 in0.3 mm
04:30 PM 47.5°F8.6°C 40.6°F4.8°C 77% 3.3 mph SSW5.3 kmh SSW 5.4 mph8.7 kmh 29.80 in1009.1 mb 0.00 in0.0 mm 0.00 in0.0 mm 0.01 in0.3 mm
04:40 PM 47.3°F8.5°C 40.5°F4.7°C 77% 2.8 mph S4.5 kmh S 5.4 mph8.7 kmh 29.80 in1009.1 mb 0.00 in0.0 mm 0.00 in0.0 mm 0.01 in0.3 mm
04:50 PM 47.3°F8.5°C 40.8°F4.9°C 78% 3.4 mph SSW5.5 kmh SSW 5.4 mph8.7 kmh 29.80 in1009.1 mb 0.00 in0.0 mm 0.00 in0.0 mm 0.01 in0.3 mm
05:00 PM 47.1°F8.4°C 40.6°F4.8°C 78% 4.1 mph SSW6.6 kmh SSW 7.6 mph12.2 kmh 29.79 in1008.8 mb 0.00 in0.0 mm 0.00 in0.0 mm 0.01 in0.3 mm
05:10 PM 47.1°F8.4°C 40.9°F4.9°C 79% 3.7 mph S6.0 kmh S 6.0 mph9.7 kmh 29.78 in1008.5 mb 0.00 in0.0 mm 0.00 in0.0 mm 0.01 in0.3 mm
05:20 PM 47.1°F8.4°C 41.3°F5.2°C 80% 2.9 mph SSW4.7 kmh SSW 3.8 mph6.1 kmh 29.77 in1008.1 mb 0.00 in0.0 mm 0.00 in0.0 mm 0.01 in0.3 mm
05:30 PM 47.1°F8.4°C 41.3°F5.2°C 80% 0.3 mph ESE0.5 kmh ESE 2.2 mph3.5 kmh 29.78 in1008.5 mb 0.00 in0.0 mm 0.00 in0.0 mm 0.01 in0.3 mm
05:40 PM 47.1°F8.4°C 41.6°F5.3°C 81% 1.4 mph SW2.3 kmh SW 4.5 mph7.2 kmh 29.77 in1008.1 mb 0.00 in0.0 mm 0.00 in0.0 mm 0.01 in0.3 mm
05:50 PM 47.3°F8.5°C 41.8°F5.4°C 81% 2.4 mph S3.9 kmh S 5.4 mph8.7 kmh 29.76 in1007.8 mb 0.00 in0.0 mm 0.00 in0.0 mm 0.01 in0.3 mm
06:00 PM 47.3°F8.5°C 41.8°F5.4°C 81% 0.6 mph WSW1.0 kmh WSW 3.1 mph5.0 kmh 29.76 in1007.8 mb 0.00 in0.0 mm 0.00 in0.0 mm 0.01 in0.3 mm
06:10 PM 47.1°F8.4°C 41.6°F5.3°C 81% 0.9 mph S1.4 kmh S 5.4 mph8.7 kmh 29.75 in1007.5 mb 0.00 in0.0 mm 0.00 in0.0 mm 0.01 in0.3 mm
06:20 PM 47.1°F8.4°C 41.6°F5.3°C 81% 1.6 mph S2.6 kmh S 5.4 mph8.7 kmh 29.74 in1007.1 mb 0.00 in0.0 mm 0.00 in0.0 mm 0.01 in0.3 mm
06:30 PM 46.9°F8.3°C 41.4°F5.2°C 81% 3.4 mph E5.5 kmh E 5.4 mph8.7 kmh 29.74 in1007.1 mb 0.00 in0.0 mm 0.00 in0.0 mm 0.01 in0.3 mm
06:40 PM 46.8°F8.2°C 41.2°F5.1°C 81% 1.9 mph S3.1 kmh S 4.5 mph7.2 kmh 29.72 in1006.4 mb 0.00 in0.0 mm 0.00 in0.0 mm 0.01 in0.3 mm
06:50 PM 46.6°F8.1°C 41.1°F5.1°C 81% Calm Calm -- 29.72 in1006.4 mb 0.00 in0.0 mm 0.00 in0.0 mm 0.01 in0.3 mm
07:00 PM 46.8°F8.2°C 41.2°F5.1°C 81% Calm Calm -- 29.71 in1006.1 mb 0.01 in0.3 mm 0.01 in0.3 mm 0.02 in0.5 mm
07:10 PM 46.6°F8.1°C 41.1°F5.1°C 81% 0.8 mph S1.3 kmh S 4.5 mph7.2 kmh 29.70 in1005.8 mb 0.02 in0.5 mm 0.06 in1.5 mm 0.04 in1.0 mm
07:20 PM 46.6°F8.1°C 41.4°F5.2°C 82% 1.3 mph SSW2.1 kmh SSW 4.5 mph7.2 kmh 29.68 in1005.1 mb 0.02 in0.5 mm 0.00 in0.0 mm 0.04 in1.0 mm
07:30 PM 46.4°F8.0°C 41.2°F5.1°C 82% 1.1 mph S1.8 kmh S 4.5 mph7.2 kmh 29.68 in1005.1 mb 0.05 in1.3 mm 0.18 in4.6 mm 0.06 in1.5 mm
07:40 PM 46.4°F8.0°C 41.2°F5.1°C 82% 1.4 mph SW2.3 kmh SW 4.5 mph7.2 kmh 29.67 in1004.7 mb 0.05 in1.3 mm 0.00 in0.0 mm 0.06 in1.5 mm
07:50 PM 46.2°F7.9°C 41.0°F5.0°C 82% 0.1 mph E0.2 kmh E 0.7 mph1.1 kmh 29.66 in1004.4 mb 0.05 in1.3 mm 0.00 in0.0 mm 0.06 in1.5 mm
08:00 PM 46.0°F7.8°C 41.2°F5.1°C 83% 3.6 mph SW5.8 kmh SW 6.0 mph9.7 kmh 29.65 in1004.1 mb 0.05 in1.3 mm 0.00 in0.0 mm 0.07 in1.8 mm
08:10 PM 46.0°F7.8°C 41.2°F5.1°C 83% 4.5 mph SW7.2 kmh SW 8.3 mph13.4 kmh 29.64 in1003.7 mb 0.04 in1.0 mm 0.00 in0.0 mm 0.07 in1.8 mm
08:20 PM 46.0°F7.8°C 41.2°F5.1°C 83% 1.5 mph SSW2.4 kmh SSW 6.9 mph11.1 kmh 29.63 in1003.4 mb 0.04 in1.0 mm 0.00 in0.0 mm 0.07 in1.8 mm
08:30 PM 46.2°F7.9°C 41.7°F5.4°C 84% 3.0 mph SSW4.8 kmh SSW 7.6 mph12.2 kmh 29.63 in1003.4 mb 0.02 in0.5 mm 0.00 in0.0 mm 0.08 in2.0 mm
08:40 PM 46.4°F8.0°C 41.8°F5.4°C 84% 4.2 mph SW6.8 kmh SW 6.9 mph11.1 kmh 29.62 in1003.0 mb 0.02 in0.5 mm 0.00 in0.0 mm 0.08 in2.0 mm
08:50 PM 46.8°F8.2°C 42.2°F5.7°C 84% 6.3 mph SSW10.1 kmh SSW 9.2 mph14.8 kmh 29.61 in1002.7 mb 0.04 in1.0 mm 0.12 in3.0 mm 0.09 in2.3 mm
09:00 PM 46.8°F8.2°C 42.5°F5.8°C 85% 4.9 mph SSW7.9 kmh SSW 8.3 mph13.4 kmh 29.59 in1002.0 mb 0.02 in0.5 mm 0.00 in0.0 mm 0.09 in2.3 mm
09:10 PM 46.8°F8.2°C 42.5°F5.8°C 85% 3.1 mph S5.0 kmh S 6.9 mph11.1 kmh 29.58 in1001.7 mb 0.02 in0.5 mm 0.00 in0.0 mm 0.09 in2.3 mm
09:20 PM 46.9°F8.3°C 42.7°F5.9°C 85% 5.6 mph S9.0 kmh S 9.2 mph14.8 kmh 29.57 in1001.4 mb 0.02 in0.5 mm 0.00 in0.0 mm 0.09 in2.3 mm
09:30 PM 46.9°F8.3°C 42.7°F5.9°C 85% 7.4 mph SSW11.9 kmh SSW 11.4 mph18.3 kmh 29.56 in1001.0 mb 0.01 in0.3 mm 0.00 in0.0 mm 0.09 in2.3 mm
09:40 PM 46.9°F8.3°C 42.7°F5.9°C 85% 5.3 mph SSW8.5 kmh SSW 10.7 mph17.2 kmh 29.55 in1000.7 mb 0.01 in0.3 mm 0.00 in0.0 mm 0.09 in2.3 mm
09:50 PM 46.9°F8.3°C 43.0°F6.1°C 86% 7.0 mph SW11.3 kmh SW 8.3 mph13.4 kmh 29.55 in1000.7 mb 0.00 in0.0 mm 0.00 in0.0 mm 0.09 in2.3 mm
10:00 PM 47.1°F8.4°C 43.2°F6.2°C 86% 6.9 mph SSW11.1 kmh SSW 11.4 mph18.3 kmh 29.54 in1000.3 mb 0.01 in0.3 mm 0.01 in0.3 mm 0.11 in2.8 mm
10:10 PM 47.5°F8.6°C 43.5°F6.4°C 86% 11.7 mph SSW18.8 kmh SSW 16.8 mph27.0 kmh 29.53 in1000.0 mb 0.01 in0.3 mm 0.00 in0.0 mm 0.11 in2.8 mm
10:20 PM 47.8°F8.8°C 43.9°F6.6°C 86% 12.5 mph SSW20.1 kmh SSW 17.4 mph28.0 kmh 29.53 in1000.0 mb 0.02 in0.5 mm 0.06 in1.5 mm 0.12 in3.0 mm
10:30 PM 48.2°F9.0°C 44.5°F6.9°C 87% 16.1 mph S25.9 kmh S 22.1 mph35.6 kmh 29.52 in999.7 mb 0.04 in1.0 mm 0.12 in3.0 mm 0.13 in3.3 mm
10:40 PM 48.4°F9.1°C 44.7°F7.1°C 87% 15.4 mph SW24.8 kmh SW 23.5 mph37.8 kmh 29.51 in999.3 mb 0.04 in1.0 mm 0.00 in0.0 mm 0.13 in3.3 mm
10:50 PM 48.6°F9.2°C 44.9°F7.2°C 87% 17.0 mph SW27.4 kmh SW 25.9 mph41.7 kmh 29.50 in999.0 mb 0.04 in1.0 mm 0.00 in0.0 mm 0.13 in3.3 mm
11:00 PM 48.6°F9.2°C 44.6°F7.0°C 86% 16.5 mph SW26.6 kmh SW 20.6 mph33.2 kmh 29.50 in999.0 mb 0.02 in0.5 mm 0.00 in0.0 mm 0.13 in3.3 mm
11:10 PM 48.4°F9.1°C 44.1°F6.7°C 85% 18.5 mph SSW29.8 kmh SSW 33.6 mph54.1 kmh 29.49 in998.6 mb 0.04 in1.0 mm 0.12 in3.0 mm 0.14 in3.6 mm
11:20 PM 47.7°F8.7°C 41.8°F5.4°C 80% 15.8 mph SW25.4 kmh SW 21.3 mph34.3 kmh 29.50 in999.0 mb 0.02 in0.5 mm 0.00 in0.0 mm 0.14 in3.6 mm
11:30 PM 46.8°F8.2°C 37.9°F3.3°C 71% 14.4 mph SW23.2 kmh SW 22.1 mph35.6 kmh 29.49 in998.6 mb 0.01 in0.3 mm 0.00 in0.0 mm 0.14 in3.6 mm
11:40 PM 46.0°F7.8°C 36.4°F2.4°C 69% 14.8 mph SW23.8 kmh SW 19.7 mph31.7 kmh 29.48 in998.3 mb 0.01 in0.3 mm 0.00 in0.0 mm 0.14 in3.6 mm
11:50 PM 46.0°F7.8°C 36.1°F2.3°C 68% 17.7 mph SSW28.5 kmh SSW 24.4 mph39.3 kmh 29.47 in998.0 mb 0.01 in0.3 mm 0.00 in0.0 mm 0.14 in3.6 mm